Temp: 18.9°C   Baro: 1015.8mb
  Wind: 0.0mph   Dir: S (177°)
  Rain: 0.6mm (0.0mm/hr)
  Solar: 605W/m2  Hum: 66%
 
Bath Spa Weather Station Historical Data
Daily Summary for December 16, 2019 Units:  Both    English   Metric
Daily Weekly Monthly Yearly Custom
  High: Low: Average:
Temperature: 49.4 °F /  9.7 °C 40.1 °F /  4.5 °C 43.1 °F /  6.2 °C
Dew Point: 43 °F /  6.1 °C 37 °F /  2.8 °C 39.5 °F /  4.2 °C
Humidity: 93% 76.4% 87%
Wind Speed: 7mph /  11.3km/h - 1.1mph /  1.8km/h
Wind Gust: 13mph /  20.9km/h - -
Wind- - SW
Pressure: 29.54 in /  1000.2 hPa 29.44 in /  996.8 hPa -
Precipitation: 0.00 in /  0 mm    
Historical Graphs
 
 
Tabular Data for December 16, 2019
Time Temperature Dew Point Pressure Wind Wind Speed Wind Gust Humidity Rainfall Rate (Hourly) solar
00:04 43.7 °F /  6.5 °C 40.4 °F /  4.7 °C 29.44in /  996.8hPa SSW 3.4mph /  5.5km/h 8mph /  12.9km/h 87.8% 0.00in /  0mm 0 W/m2
00:09 43.9 °F /  6.6 °C 40.6 °F /  4.8 °C 29.44in /  996.8hPa SW 5.7mph /  9.2km/h 11mph /  17.7km/h 88% 0.00in /  0mm 0 W/m2
00:14 44 °F /  6.7 °C 40.7 °F /  4.8 °C 29.44in /  996.8hPa SW 4.8mph /  7.7km/h 11mph /  17.7km/h 88% 0.00in /  0mm 0 W/m2
00:19 44.1 °F /  6.7 °C 40.5 °F /  4.7 °C 29.44in /  996.8hPa SW 3mph /  4.8km/h 9mph /  14.5km/h 87% 0.00in /  0mm 0 W/m2
00:24 44.1 °F /  6.7 °C 40.5 °F /  4.7 °C 29.44in /  996.8hPa SSW 3.6mph /  5.8km/h 8mph /  12.9km/h 87% 0.00in /  0mm 0 W/m2
00:29 44.2 °F /  6.8 °C 40.6 °F /  4.8 °C 29.44in /  996.8hPa SW 6mph /  9.7km/h 9mph /  14.5km/h 87% 0.00in /  0mm 0 W/m2
00:34 44.2 °F /  6.8 °C 40.6 °F /  4.8 °C 29.44in /  996.8hPa SSW 5.6mph /  9km/h 9mph /  14.5km/h 87% 0.00in /  0mm 0 W/m2
00:39 44.3 °F /  6.8 °C 40.4 °F /  4.7 °C 29.44in /  996.8hPa SSW 7mph /  11.3km/h 12mph /  19.3km/h 86% 0.00in /  0mm 0 W/m2
00:44 44.4 °F /  6.9 °C 40.3 °F /  4.6 °C 29.44in /  996.8hPa SSW 5.1mph /  8.2km/h 13mph /  20.9km/h 85.2% 0.00in /  0mm 0 W/m2
00:49 44.4 °F /  6.9 °C 40.2 °F /  4.6 °C 29.45in /  997.2hPa SW 4.5mph /  7.2km/h 13mph /  20.9km/h 84.8% 0.00in /  0mm 0 W/m2
00:54 44.3 °F /  6.8 °C 39.8 °F /  4.3 °C 29.45in /  997.2hPa WSW 5mph /  8km/h 9mph /  14.5km/h 84% 0.00in /  0mm 0 W/m2
00:59 44.2 °F /  6.8 °C 39.7 °F /  4.3 °C 29.45in /  997.2hPa WSW 3.8mph /  6.1km/h 9mph /  14.5km/h 84% 0.00in /  0mm 0 W/m2
01:04 44.1 °F /  6.7 °C 39.6 °F /  4.2 °C 29.45in /  997.2hPa WSW 4.2mph /  6.8km/h 8mph /  12.9km/h 84% 0.00in /  0mm 0 W/m2
01:09 44.1 °F /  6.7 °C 39.6 °F /  4.2 °C 29.45in /  997.2hPa WSW 2.7mph /  4.3km/h 8mph /  12.9km/h 84% 0.00in /  0mm 0 W/m2
01:14 43.9 °F /  6.6 °C 39.4 °F /  4.1 °C 29.45in /  997.2hPa WSW 2.5mph /  4km/h 8mph /  12.9km/h 84% 0.00in /  0mm 0 W/m2
01:19 43.9 °F /  6.6 °C 39.4 °F /  4.1 °C 29.45in /  997.2hPa WSW 4.2mph /  6.8km/h 7mph /  11.3km/h 84% 0.00in /  0mm 0 W/m2
01:24 43.9 °F /  6.6 °C 39.4 °F /  4.1 °C 29.45in /  997.2hPa West 2.1mph /  3.4km/h 6mph /  9.7km/h 84% 0.00in /  0mm 0 W/m2
01:29 43.8 °F /  6.6 °C 39.3 °F /  4.1 °C 29.45in /  997.2hPa West 3.2mph /  5.1km/h 8mph /  12.9km/h 84% 0.00in /  0mm 0 W/m2
01:34 43.8 °F /  6.6 °C 39.6 °F /  4.2 °C 29.45in /  997.2hPa West 2.8mph /  4.5km/h 6mph /  9.7km/h 84.8% 0.00in /  0mm 0 W/m2
01:39 43.8 °F /  6.6 °C 39.7 °F /  4.3 °C 29.45in /  997.2hPa WSW 3.8mph /  6.1km/h 7mph /  11.3km/h 85% 0.00in /  0mm 0 W/m2
01:44 43.7 °F /  6.5 °C 39.6 °F /  4.2 °C 29.45in /  997.2hPa WSW 0.8mph /  1.3km/h 4mph /  6.4km/h 85% 0.00in /  0mm 0 W/m2
01:49 43.7 °F /  6.5 °C 39.6 °F /  4.2 °C 29.46in /  997.5hPa WSW 2.3mph /  3.7km/h 5mph /  8km/h 85% 0.00in /  0mm 0 W/m2
01:54 43.5 °F /  6.4 °C 39.4 °F /  4.1 °C 29.46in /  997.5hPa WSW 0.9mph /  1.4km/h 5mph /  8km/h 85% 0.00in /  0mm 0 W/m2
01:59 43.4 °F /  6.3 °C 39.3 °F /  4.1 °C 29.46in /  997.5hPa WSW 4mph /  6.4km/h 8mph /  12.9km/h 85% 0.00in /  0mm 0 W/m2
02:04 43.4 °F /  6.3 °C 39.3 °F /  4.1 °C 29.46in /  997.5hPa West 2.4mph /  3.9km/h 8mph /  12.9km/h 85% 0.00in /  0mm 0 W/m2
02:09 43.3 °F /  6.3 °C 39.2 °F /  4 °C 29.46in /  997.5hPa West 1.7mph /  2.7km/h 7mph /  11.3km/h 85% 0.00in /  0mm 0 W/m2
02:14 43.3 °F /  6.3 °C 39.1 °F /  3.9 °C 29.47in /  997.9hPa WSW 3.5mph /  5.6km/h 7mph /  11.3km/h 85% 0.00in /  0mm 0 W/m2
02:19 43.3 °F /  6.3 °C 39.2 °F /  4 °C 29.46in /  997.5hPa WSW 4.1mph /  6.6km/h 9mph /  14.5km/h 85% 0.00in /  0mm 0 W/m2
02:24 43.5 °F /  6.4 °C 39.4 °F /  4.1 °C 29.47in /  997.9hPa SW 3.1mph /  5km/h 8mph /  12.9km/h 85% 0.00in /  0mm 0 W/m2
02:29 43.5 °F /  6.4 °C 39.2 °F /  4 °C 29.47in /  997.9hPa WSW 1.4mph /  2.3km/h 6mph /  9.7km/h 84.6% 0.00in /  0mm 0 W/m2
02:34 43.4 °F /  6.3 °C 38.9 °F /  3.8 °C 29.47in /  997.9hPa SW 3mph /  4.8km/h 10mph /  16.1km/h 84% 0.00in /  0mm 0 W/m2
02:38 43.5 °F /  6.4 °C 39 °F /  3.9 °C 29.47in /  997.9hPa SW 2.2mph /  3.5km/h 10mph /  16.1km/h 84% 0.00in /  0mm 0 W/m2
02:44 43.5 °F /  6.4 °C 39 °F /  3.9 °C 29.47in /  997.9hPa WSW 3.2mph /  5.1km/h 7mph /  11.3km/h 84% 0.00in /  0mm 0 W/m2
02:49 43.5 °F /  6.4 °C 39 °F /  3.9 °C 29.47in /  997.9hPa SW 5.8mph /  9.3km/h 11mph /  17.7km/h 84% 0.00in /  0mm 0 W/m2
02:54 43.8 °F /  6.6 °C 39 °F /  3.9 °C 29.47in /  997.9hPa SW 3.6mph /  5.8km/h 8mph /  12.9km/h 83.4% 0.00in /  0mm 0 W/m2
02:59 43.9 °F /  6.6 °C 39 °F /  3.9 °C 29.47in /  997.9hPa SW 5mph /  8km/h 10mph /  16.1km/h 83% 0.00in /  0mm 0 W/m2
03:04 43.9 °F /  6.6 °C 39 °F /  3.9 °C 29.47in /  997.9hPa SSW 3.7mph /  6km/h 11mph /  17.7km/h 82.8% 0.00in /  0mm 0 W/m2
03:09 44.1 °F /  6.7 °C 38.8 °F /  3.8 °C 29.47in /  997.9hPa SSW 4.6mph /  7.4km/h 8mph /  12.9km/h 82% 0.00in /  0mm 0 W/m2
03:14 44.1 °F /  6.7 °C 38.8 °F /  3.8 °C 29.47in /  997.9hPa SW 6mph /  9.7km/h 9mph /  14.5km/h 82% 0.00in /  0mm 0 W/m2
03:19 44.1 °F /  6.7 °C 38.8 °F /  3.8 °C 29.47in /  997.9hPa SW 2.7mph /  4.3km/h 9mph /  14.5km/h 82% 0.00in /  0mm 0 W/m2
03:24 43.8 °F /  6.6 °C 38.6 °F /  3.7 °C 29.47in /  997.9hPa SW 0.5mph /  0.8km/h 5mph /  8km/h 82% 0.00in /  0mm 0 W/m2
03:29 43.5 °F /  6.4 °C 38.5 °F /  3.6 °C 29.47in /  997.9hPa SSW 2mph /  3.2km/h 6mph /  9.7km/h 82% 0.00in /  0mm 0 W/m2
03:34 43.3 °F /  6.3 °C 38.4 °F /  3.6 °C 29.47in /  997.9hPa SSW 0.6mph /  1km/h 5mph /  8km/h 82.4% 0.00in /  0mm 0 W/m2
03:39 43.2 °F /  6.2 °C 38.3 °F /  3.5 °C 29.47in /  997.9hPa SSW 3.6mph /  5.8km/h 8mph /  12.9km/h 83% 0.00in /  0mm 0 W/m2
03:44 43.1 °F /  6.2 °C 38.2 °F /  3.4 °C 29.47in /  997.9hPa SSW 2.8mph /  4.5km/h 6mph /  9.7km/h 83% 0.00in /  0mm 0 W/m2
03:49 43 °F /  6.1 °C 38.2 °F /  3.4 °C 29.47in /  997.9hPa SSW 2.5mph /  4km/h 5mph /  8km/h 83.2% 0.00in /  0mm 0 W/m2
03:54 43 °F /  6.1 °C 38.5 °F /  3.6 °C 29.47in /  997.9hPa SSW 1.2mph /  1.9km/h 5mph /  8km/h 84% 0.00in /  0mm 0 W/m2
03:59 43 °F /  6.1 °C 38.5 °F /  3.6 °C 29.47in /  997.9hPa SSW 2mph /  3.2km/h 5mph /  8km/h 84% 0.00in /  0mm 0 W/m2
04:04 42.8 °F /  6 °C 38.3 °F /  3.5 °C 29.47in /  997.9hPa South 3.8mph /  6.1km/h 7mph /  11.3km/h 84% 0.00in /  0mm 0 W/m2
04:09 42.7 °F /  5.9 °C 38.2 °F /  3.4 °C 29.47in /  997.9hPa South 2.1mph /  3.4km/h 7mph /  11.3km/h 84% 0.00in /  0mm 0 W/m2
04:14 42.8 °F /  6 °C 38.6 °F /  3.7 °C 29.47in /  997.9hPa South 0.9mph /  1.4km/h 5mph /  8km/h 84.6% 0.00in /  0mm 0 W/m2
04:19 43 °F /  6.1 °C 38.5 °F /  3.6 °C 29.47in /  997.9hPa SSW 2.5mph /  4km/h 5mph /  8km/h 84.2% 0.00in /  0mm 0 W/m2
04:24 43.1 °F /  6.2 °C 38.6 °F /  3.7 °C 29.47in /  997.9hPa SSW 2mph /  3.2km/h 5mph /  8km/h 84% 0.00in /  0mm 0 W/m2
04:29 43.2 °F /  6.2 °C 38.7 °F /  3.7 °C 29.47in /  997.9hPa SSW 1.5mph /  2.4km/h 4mph /  6.4km/h 84% 0.00in /  0mm 0 W/m2
04:34 43.1 °F /  6.2 °C 38.6 °F /  3.7 °C 29.47in /  997.9hPa SSW 1.6mph /  2.6km/h 5mph /  8km/h 84% 0.00in /  0mm 0 W/m2
04:39 43.1 °F /  6.2 °C 38.6 °F /  3.7 °C 29.47in /  997.9hPa SSW 1.6mph /  2.6km/h 5mph /  8km/h 84% 0.00in /  0mm 0 W/m2
04:44 43 °F /  6.1 °C 38.5 °F /  3.6 °C 29.47in /  997.9hPa SSW 1.4mph /  2.3km/h 7mph /  11.3km/h 84% 0.00in /  0mm 0 W/m2
04:49 43 °F /  6.1 °C 38.5 °F /  3.6 °C 29.47in /  997.9hPa SSW 0.8mph /  1.3km/h 5mph /  8km/h 84% 0.00in /  0mm 0 W/m2
04:54 42.8 °F /  6 °C 38.7 °F /  3.7 °C 29.47in /  997.9hPa SSW 0.6mph /  1km/h 7mph /  11.3km/h 85% 0.00in /  0mm 0 W/m2
04:59 42.9 °F /  6.1 °C 38.7 °F /  3.7 °C 29.47in /  997.9hPa SSW 0.8mph /  1.3km/h 7mph /  11.3km/h 85% 0.00in /  0mm 0 W/m2
05:04 42.8 °F /  6 °C 38.7 °F /  3.7 °C 29.47in /  997.9hPa SSW 0.8mph /  1.3km/h 3mph /  4.8km/h 85% 0.00in /  0mm 0 W/m2
05:09 42.7 °F /  5.9 °C 38.6 °F /  3.7 °C 29.47in /  997.9hPa SSW 1mph /  1.6km/h 4mph /  6.4km/h 85% 0.00in /  0mm 0 W/m2
05:14 42.6 °F /  5.9 °C 38.5 °F /  3.6 °C 29.48in /  998.2hPa SSW 2.2mph /  3.5km/h 5mph /  8km/h 85% 0.00in /  0mm 0 W/m2
05:19 42.6 °F /  5.9 °C 38.5 °F /  3.6 °C 29.48in /  998.2hPa SSW 2.8mph /  4.5km/h 7mph /  11.3km/h 85% 0.00in /  0mm 0 W/m2
05:24 42.7 °F /  5.9 °C 38.6 °F /  3.7 °C 29.48in /  998.2hPa SSW 1.2mph /  1.9km/h 7mph /  11.3km/h 85% 0.00in /  0mm 0 W/m2
05:29 42.8 °F /  6 °C 38.7 °F /  3.7 °C 29.48in /  998.2hPa SSW 2.9mph /  4.7km/h 8mph /  12.9km/h 85% 0.00in /  0mm 0 W/m2
05:34 42.9 °F /  6.1 °C 38.7 °F /  3.7 °C 29.48in /  998.2hPa SSW 3.1mph /  5km/h 9mph /  14.5km/h 85% 0.00in /  0mm 0 W/m2
05:39 42.8 °F /  6 °C 38.6 °F /  3.7 °C 29.48in /  998.2hPa Calm   6mph /  9.7km/h 85% 0.00in /  0mm 0 W/m2
05:44 42.5 °F /  5.8 °C 38.4 °F /  3.6 °C 29.48in /  998.2hPa SSW 1.2mph /  1.9km/h 6mph /  9.7km/h 85% 0.00in /  0mm 0 W/m2
05:49 42.5 °F /  5.8 °C 38.3 °F /  3.5 °C 29.48in /  998.2hPa SSW 4mph /  6.4km/h 11mph /  17.7km/h 85% 0.00in /  0mm 0 W/m2
05:54 42.6 °F /  5.9 °C 38.5 °F /  3.6 °C 29.48in /  998.2hPa SW 2.5mph /  4km/h 8mph /  12.9km/h 85% 0.00in /  0mm 0 W/m2
05:59 42.8 °F /  6 °C 38.7 °F /  3.7 °C 29.48in /  998.2hPa SW 1.8mph /  2.9km/h 6mph /  9.7km/h 85% 0.00in /  0mm 0 W/m2
06:04 42.6 °F /  5.9 °C 38.5 °F /  3.6 °C 29.48in /  998.2hPa SW 1.8mph /  2.9km/h 6mph /  9.7km/h 85% 0.00in /  0mm 0 W/m2
06:09 42.4 °F /  5.8 °C 38.3 °F /  3.5 °C 29.48in /  998.2hPa SW 3.2mph /  5.1km/h 9mph /  14.5km/h 85% 0.00in /  0mm 0 W/m2
06:14 42.4 °F /  5.8 °C 38.3 °F /  3.5 °C 29.48in /  998.2hPa SW 0.4mph /  0.6km/h 5mph /  8km/h 85% 0.00in /  0mm 0 W/m2
06:19 42.3 °F /  5.7 °C 38.2 °F /  3.4 °C 29.48in /  998.2hPa SW 0.8mph /  1.3km/h 3mph /  4.8km/h 85% 0.00in /  0mm 0 W/m2
06:24 42.1 °F /  5.6 °C 37.9 °F /  3.3 °C 29.48in /  998.2hPa SW 1mph /  1.6km/h 4mph /  6.4km/h 85% 0.00in /  0mm 0 W/m2
06:28 41.8 °F /  5.4 °C 37.8 °F /  3.2 °C 29.49in /  998.5hPa SW 4.3mph /  6.9km/h 6mph /  9.7km/h 85% 0.00in /  0mm 0 W/m2
06:34 41.6 °F /  5.3 °C 37.6 °F /  3.1 °C 29.49in /  998.5hPa SW 3.6mph /  5.8km/h 8mph /  12.9km/h 85.6% 0.00in /  0mm 0 W/m2
06:39 41.5 °F /  5.3 °C 37.6 °F /  3.1 °C 29.49in /  998.5hPa Calm     86% 0.00in /  0mm 0 W/m2
06:44 41.4 °F /  5.2 °C 37.6 °F /  3.1 °C 29.49in /  998.5hPa SW 2.4mph /  3.9km/h 5mph /  8km/h 86% 0.00in /  0mm 0 W/m2
06:49 41.4 °F /  5.2 °C 37.6 °F /  3.1 °C 29.49in /  998.5hPa SW 1.2mph /  1.9km/h 6mph /  9.7km/h 86.2% 0.00in /  0mm 0 W/m2
06:54 41.4 °F /  5.2 °C 37.8 °F /  3.2 °C 29.49in /  998.5hPa SW 0.8mph /  1.3km/h 6mph /  9.7km/h 87% 0.00in /  0mm 0 W/m2
06:59 41.4 °F /  5.2 °C 37.8 °F /  3.2 °C 29.49in /  998.5hPa SW 3.3mph /  5.3km/h 7mph /  11.3km/h 87% 0.00in /  0mm 0 W/m2
07:04 41.3 °F /  5.2 °C 37.7 °F /  3.2 °C 29.49in /  998.5hPa SW 0.2mph /  0.3km/h 3mph /  4.8km/h 87% 0.00in /  0mm 0 W/m2
07:09 41.2 °F /  5.1 °C 37.6 °F /  3.1 °C 29.49in /  998.5hPa SW 0.6mph /  1km/h 3mph /  4.8km/h 87% 0.00in /  0mm 0 W/m2
07:14 41.2 °F /  5.1 °C 37.6 °F /  3.1 °C 29.49in /  998.5hPa Calm   4mph /  6.4km/h 87% 0.00in /  0mm 0 W/m2
07:19 41.2 °F /  5.1 °C 37.6 °F /  3.1 °C 29.49in /  998.5hPa SW 3.5mph /  5.6km/h 8mph /  12.9km/h 87% 0.00in /  0mm 0 W/m2
07:24 41 °F /  5 °C 37.4 °F /  3 °C 29.49in /  998.5hPa Calm   8mph /  12.9km/h 87% 0.00in /  0mm 0 W/m2
07:29 40.8 °F /  4.9 °C 37.4 °F /  3 °C 29.50in /  998.9hPa SW 0.8mph /  1.3km/h 5mph /  8km/h 87.4% 0.00in /  0mm 0 W/m2
07:34 40.6 °F /  4.8 °C 37.3 °F /  2.9 °C 29.50in /  998.9hPa SW 1.2mph /  1.9km/h 5mph /  8km/h 87.8% 0.00in /  0mm 0 W/m2
07:39 40.7 °F /  4.8 °C 37.5 °F /  3.1 °C 29.50in /  998.9hPa Calm   3mph /  4.8km/h 88% 0.00in /  0mm 0 W/m2
07:44 41 °F /  5 °C 37.8 °F /  3.2 °C 29.50in /  998.9hPa Calm     88% 0.00in /  0mm 0 W/m2
07:49 40.8 °F /  4.9 °C 37.6 °F /  3.1 °C 29.50in /  998.9hPa SW 0.4mph /  0.6km/h 2mph /  3.2km/h 88% 0.00in /  0mm 0 W/m2
07:54 40.5 °F /  4.7 °C 37.2 °F /  2.9 °C 29.51in /  999.2hPa SW 4.6mph /  7.4km/h 11mph /  17.7km/h 88% 0.00in /  0mm 0 W/m2
07:59 40.5 °F /  4.7 °C 37.3 °F /  2.9 °C 29.51in /  999.2hPa WSW 1.6mph /  2.6km/h 8mph /  12.9km/h 88% 0.00in /  0mm 0 W/m2
08:03 40.5 °F /  4.7 °C 37.3 °F /  2.9 °C 29.51in /  999.2hPa WSW 4.5mph /  7.2km/h 10mph /  16.1km/h 88.3% 0.00in /  0mm 0 W/m2
08:09 40.8 °F /  4.9 °C 37.8 °F /  3.2 °C 29.51in /  999.2hPa WSW 0.8mph /  1.3km/h 10mph /  16.1km/h 89% 0.00in /  0mm 0 W/m2
08:14 40.9 °F /  4.9 °C 37.9 °F /  3.3 °C 29.51in /  999.2hPa WSW 3.4mph /  5.5km/h 9mph /  14.5km/h 89% 0.00in /  0mm 0 W/m2
08:19 40.8 °F /  4.9 °C 37.8 °F /  3.2 °C 29.52in /  999.5hPa WSW 4.5mph /  7.2km/h 7mph /  11.3km/h 89% 0.00in /  0mm 0 W/m2
08:24 40.9 °F /  4.9 °C 37.8 °F /  3.2 °C 29.52in /  999.5hPa WSW 1.2mph /  1.9km/h 6mph /  9.7km/h 89% 0.00in /  0mm 7 W/m2
08:29 40.8 °F /  4.9 °C 37.8 °F /  3.2 °C 29.52in /  999.5hPa WSW 1.4mph /  2.3km/h 5mph /  8km/h 89% 0.00in /  0mm 9 W/m2
08:34 40.7 °F /  4.8 °C 37.7 °F /  3.2 °C 29.52in /  999.5hPa Calm   1mph /  1.6km/h 89% 0.00in /  0mm 9 W/m2
08:39 40.6 °F /  4.8 °C 37.6 °F /  3.1 °C 29.52in /  999.5hPa Calm     89% 0.00in /  0mm 11 W/m2
08:44 40.5 °F /  4.7 °C 37.3 °F /  2.9 °C 29.52in /  999.5hPa Calm     88.4% 0.00in /  0mm 12 W/m2
08:49 40.3 °F /  4.6 °C 37.2 °F /  2.9 °C 29.53in /  999.9hPa Calm     88.8% 0.00in /  0mm 14 W/m2
08:54 40.3 °F /  4.6 °C 37.2 °F /  2.9 °C 29.53in /  999.9hPa Calm     89% 0.00in /  0mm 18 W/m2
08:58 40.3 °F /  4.6 °C 37.2 °F /  2.9 °C 29.53in /  999.9hPa Calm   1mph /  1.6km/h 89% 0.00in /  0mm 19 W/m2
09:04 40.2 °F /  4.6 °C 37.1 °F /  2.8 °C 29.53in /  999.9hPa WSW 2mph /  3.2km/h 4mph /  6.4km/h 89% 0.00in /  0mm 23 W/m2
09:09 40.1 °F /  4.5 °C 37 °F /  2.8 °C 29.53in /  999.9hPa WSW 1.2mph /  1.9km/h 4mph /  6.4km/h 89% 0.00in /  0mm 26 W/m2
09:14 40.3 °F /  4.6 °C 37.2 °F /  2.9 °C 29.53in /  999.9hPa WSW 1.8mph /  2.9km/h 4mph /  6.4km/h 89% 0.00in /  0mm 30 W/m2
09:19 40.4 °F /  4.7 °C 37.4 °F /  3 °C 29.53in /  999.9hPa WSW 3.6mph /  5.8km/h 5mph /  8km/h 89.2% 0.00in /  0mm 35 W/m2
09:24 40.6 °F /  4.8 °C 37.9 °F /  3.3 °C 29.53in /  999.9hPa WSW 2.4mph /  3.9km/h 5mph /  8km/h 90% 0.00in /  0mm 37 W/m2
09:29 40.6 °F /  4.8 °C 37.9 °F /  3.3 °C 29.53in /  999.9hPa WSW 0.2mph /  0.3km/h 3mph /  4.8km/h 90% 0.00in /  0mm 39 W/m2
09:33 40.6 °F /  4.8 °C 37.9 °F /  3.3 °C 29.53in /  999.9hPa Calm   3mph /  4.8km/h 90% 0.00in /  0mm 40 W/m2
09:39 40.7 °F /  4.8 °C 38 °F /  3.3 °C 29.53in /  999.9hPa Calm   2mph /  3.2km/h 90% 0.00in /  0mm 40 W/m2
09:44 40.8 °F /  4.9 °C 38.1 °F /  3.4 °C 29.53in /  999.9hPa WSW 1.4mph /  2.3km/h 3mph /  4.8km/h 90% 0.00in /  0mm 44 W/m2
09:49 40.8 °F /  4.9 °C 38.1 °F /  3.4 °C 29.54in /  1000.2hPa WSW 0.8mph /  1.3km/h 4mph /  6.4km/h 90% 0.00in /  0mm 46 W/m2
09:54 41.1 °F /  5.1 °C 38.4 °F /  3.6 °C 29.54in /  1000.2hPa WSW 0.4mph /  0.6km/h 4mph /  6.4km/h 90% 0.00in /  0mm 53 W/m2
09:59 41 °F /  5 °C 38.3 °F /  3.5 °C 29.54in /  1000.2hPa Calm   4mph /  6.4km/h 90% 0.00in /  0mm 53 W/m2
10:04 41 °F /  5 °C 38.3 °F /  3.5 °C 29.54in /  1000.2hPa Calm   1mph /  1.6km/h 90% 0.00in /  0mm 53 W/m2
10:09 41.2 °F /  5.1 °C 38.5 °F /  3.6 °C 29.54in /  1000.2hPa Calm   1mph /  1.6km/h 90% 0.00in /  0mm 58 W/m2
10:14 41.2 °F /  5.1 °C 38.5 °F /  3.6 °C 29.54in /  1000.2hPa Calm     90% 0.00in /  0mm 63 W/m2
10:19 41.4 °F /  5.2 °C 38.7 °F /  3.7 °C 29.54in /  1000.2hPa Calm     90% 0.00in /  0mm 67 W/m2
10:24 41.4 °F /  5.2 °C 38.7 °F /  3.7 °C 29.54in /  1000.2hPa Calm     90% 0.00in /  0mm 67 W/m2
10:29 41.5 °F /  5.3 °C 38.8 °F /  3.8 °C 29.54in /  1000.2hPa Calm     90% 0.00in /  0mm 77 W/m2
10:34 41.7 °F /  5.4 °C 39 °F /  3.9 °C 29.54in /  1000.2hPa Calm     90% 0.00in /  0mm 77 W/m2
10:39 41.9 °F /  5.5 °C 39.2 °F /  4 °C 29.54in /  1000.2hPa Calm     90% 0.00in /  0mm 79 W/m2
10:44 42.1 °F /  5.6 °C 39.4 °F /  4.1 °C 29.54in /  1000.2hPa Calm     90% 0.00in /  0mm 91 W/m2
10:49 42.2 °F /  5.7 °C 39.5 °F /  4.2 °C 29.54in /  1000.2hPa Calm     90% 0.00in /  0mm 91 W/m2
10:54 42.3 °F /  5.7 °C 39.7 °F /  4.3 °C 29.54in /  1000.2hPa Calm     90% 0.00in /  0mm 107 W/m2
10:59 42.5 °F /  5.8 °C 39.9 °F /  4.4 °C 29.54in /  1000.2hPa Calm   1mph /  1.6km/h 90.2% 0.00in /  0mm 105 W/m2
11:04 42.7 °F /  5.9 °C 40 °F /  4.4 °C 29.54in /  1000.2hPa Calm     90% 0.00in /  0mm 104 W/m2
11:09 43.1 °F /  6.2 °C 40.5 °F /  4.7 °C 29.54in /  1000.2hPa Calm     90.4% 0.00in /  0mm 104 W/m2
11:14 43.3 °F /  6.3 °C 40.8 °F /  4.9 °C 29.54in /  1000.2hPa Calm     91% 0.00in /  0mm 107 W/m2
11:19 43.5 °F /  6.4 °C 40.8 °F /  4.9 °C 29.54in /  1000.2hPa Calm     90.2% 0.00in /  0mm 109 W/m2
11:24 43.7 °F /  6.5 °C 41 °F /  5 °C 29.54in /  1000.2hPa Calm     90% 0.00in /  0mm 127 W/m2
11:29 43.8 °F /  6.6 °C 41.1 °F /  5.1 °C 29.53in /  999.9hPa Calm   1mph /  1.6km/h 90% 0.00in /  0mm 137 W/m2
11:34 44.1 °F /  6.7 °C 41.3 °F /  5.2 °C 29.53in /  999.9hPa Calm     90% 0.00in /  0mm 141 W/m2
11:39 44.2 °F /  6.8 °C 41.5 °F /  5.3 °C 29.53in /  999.9hPa Calm   1mph /  1.6km/h 90% 0.00in /  0mm 102 W/m2
11:44 44.6 °F /  7 °C 41.9 °F /  5.5 °C 29.52in /  999.5hPa Calm     90% 0.00in /  0mm 107 W/m2
11:49 44.9 °F /  7.2 °C 42.2 °F /  5.7 °C 29.52in /  999.5hPa Calm     90% 0.00in /  0mm 128 W/m2
11:54 45.2 °F /  7.3 °C 42.5 °F /  5.8 °C 29.52in /  999.5hPa Calm     90% 0.00in /  0mm 144 W/m2
11:58 45.8 °F /  7.7 °C 43 °F /  6.1 °C 29.52in /  999.5hPa WSW 0.3mph /  0.5km/h 1mph /  1.6km/h 89.8% 0.00in /  0mm 125 W/m2
12:04 46 °F /  7.8 °C 43 °F /  6.1 °C 29.52in /  999.5hPa Calm   1mph /  1.6km/h 89% 0.00in /  0mm 120 W/m2
12:09 45.9 °F /  7.7 °C 42.3 °F /  5.7 °C 29.52in /  999.5hPa WSW 0.2mph /  0.3km/h 2mph /  3.2km/h 87.8% 0.00in /  0mm 113 W/m2
12:14 45.7 °F /  7.6 °C 41.9 °F /  5.5 °C 29.52in /  999.5hPa WSW 0.6mph /  1km/h 3mph /  4.8km/h 86.6% 0.00in /  0mm 183 W/m2
12:19 45.9 °F /  7.7 °C 41.5 °F /  5.3 °C 29.52in /  999.5hPa SW 1mph /  1.6km/h 3mph /  4.8km/h 84.8% 0.00in /  0mm 176 W/m2
12:24 46 °F /  7.8 °C 41 °F /  5 °C 29.52in /  999.5hPa SW 0.8mph /  1.3km/h 3mph /  4.8km/h 82.4% 0.00in /  0mm 148 W/m2
12:29 46.2 °F /  7.9 °C 40.6 °F /  4.8 °C 29.52in /  999.5hPa SW 2.4mph /  3.9km/h 5mph /  8km/h 81% 0.00in /  0mm 209 W/m2
12:34 46.3 °F /  7.9 °C 40.6 °F /  4.8 °C 29.52in /  999.5hPa SW 1.7mph /  2.7km/h 5mph /  8km/h 80% 0.00in /  0mm 155 W/m2
12:39 46.6 °F /  8.1 °C 40.8 °F /  4.9 °C 29.52in /  999.5hPa SW 0.8mph /  1.3km/h 5mph /  8km/h 80% 0.00in /  0mm 229 W/m2
12:44 47 °F /  8.3 °C 41.1 °F /  5.1 °C 29.52in /  999.5hPa SW 0.9mph /  1.4km/h 5mph /  8km/h 79.4% 0.00in /  0mm 193 W/m2
12:49 47.7 °F /  8.7 °C 41.6 °F /  5.3 °C 29.52in /  999.5hPa SW 1mph /  1.6km/h 2mph /  3.2km/h 79.4% 0.00in /  0mm 200 W/m2
12:54 48.4 °F /  9.1 °C 42.3 °F /  5.7 °C 29.52in /  999.5hPa SW 2mph /  3.2km/h 4mph /  6.4km/h 79.4% 0.00in /  0mm 195 W/m2
12:58 47.8 °F /  8.8 °C 41 °F /  5 °C 29.51in /  999.2hPa SW 1.2mph /  1.9km/h 3mph /  4.8km/h 77% 0.00in /  0mm 197 W/m2
13:04 48.3 °F /  9.1 °C 41.9 °F /  5.5 °C 29.51in /  999.2hPa SW 0.4mph /  0.6km/h 2mph /  3.2km/h 78.2% 0.00in /  0mm 195 W/m2
13:09 48.3 °F /  9.1 °C 41.6 °F /  5.3 °C 29.51in /  999.2hPa SW 2.2mph /  3.5km/h 6mph /  9.7km/h 77.2% 0.00in /  0mm 171 W/m2
13:14 49 °F /  9.4 °C 42.6 °F /  5.9 °C 29.51in /  999.2hPa SW 0.6mph /  1km/h 8mph /  12.9km/h 78.6% 0.00in /  0mm 160 W/m2
13:19 48.6 °F /  9.2 °C 41.5 °F /  5.3 °C 29.51in /  999.2hPa SW 0.6mph /  1km/h 3mph /  4.8km/h 76.4% 0.00in /  0mm 139 W/m2
13:24 48.6 °F /  9.2 °C 42 °F /  5.6 °C 29.51in /  999.2hPa SW 1.6mph /  2.6km/h 6mph /  9.7km/h 77.6% 0.00in /  0mm 135 W/m2
13:29 49.4 °F /  9.7 °C 42.8 °F /  6 °C 29.51in /  999.2hPa SW 0.7mph /  1.1km/h 6mph /  9.7km/h 78% 0.00in /  0mm 134 W/m2
13:34 49.4 °F /  9.7 °C 42.6 °F /  5.9 °C 29.51in /  999.2hPa Calm     77.4% 0.00in /  0mm 93 W/m2
13:39 49 °F /  9.4 °C 42.2 °F /  5.7 °C 29.51in /  999.2hPa SSW 3.2mph /  5.1km/h 10mph /  16.1km/h 77% 0.00in /  0mm 97 W/m2
13:44 47.9 °F /  8.8 °C 41.3 °F /  5.2 °C 29.51in /  999.2hPa South 4.8mph /  7.7km/h 10mph /  16.1km/h 77.6% 0.00in /  0mm 100 W/m2
13:49 47.6 °F /  8.7 °C 41.3 °F /  5.2 °C 29.51in /  999.2hPa South 5mph /  8km/h 9mph /  14.5km/h 78.8% 0.00in /  0mm 114 W/m2
13:54 47.3 °F /  8.5 °C 41.2 °F /  5.1 °C 29.50in /  998.9hPa South 3.6mph /  5.8km/h 9mph /  14.5km/h 79% 0.00in /  0mm 111 W/m2
13:59 47.7 °F /  8.7 °C 41.6 °F /  5.3 °C 29.50in /  998.9hPa South 5.6mph /  9km/h 10mph /  16.1km/h 79.8% 0.00in /  0mm 125 W/m2
14:04 47.5 °F /  8.6 °C 41.4 °F /  5.2 °C 29.50in /  998.9hPa South 2.2mph /  3.5km/h 8mph /  12.9km/h 79% 0.00in /  0mm 97 W/m2
14:09 47.5 °F /  8.6 °C 41.4 °F /  5.2 °C 29.50in /  998.9hPa South 1.2mph /  1.9km/h 4mph /  6.4km/h 79% 0.00in /  0mm 86 W/m2
14:14 47.7 °F /  8.7 °C 41.5 °F /  5.3 °C 29.50in /  998.9hPa South 3.2mph /  5.1km/h 7mph /  11.3km/h 79% 0.00in /  0mm 84 W/m2
14:19 47.5 °F /  8.6 °C 41.4 °F /  5.2 °C 29.50in /  998.9hPa South 1.2mph /  1.9km/h 6mph /  9.7km/h 79% 0.00in /  0mm 65 W/m2
14:24 47.4 °F /  8.6 °C 41.3 °F /  5.2 °C 29.50in /  998.9hPa South 1mph /  1.6km/h 6mph /  9.7km/h 79% 0.00in /  0mm 67 W/m2
14:29 47.2 °F /  8.4 °C 41.1 °F /  5.1 °C 29.50in /  998.9hPa South 0.2mph /  0.3km/h 6mph /  9.7km/h 79% 0.00in /  0mm 67 W/m2
14:34 47.1 °F /  8.4 °C 41 °F /  5 °C 29.50in /  998.9hPa Calm   1mph /  1.6km/h 79% 0.00in /  0mm 65 W/m2
14:39 47.3 °F /  8.5 °C 41.3 °F /  5.2 °C 29.50in /  998.9hPa Calm     79.6% 0.00in /  0mm 56 W/m2
14:44 47.5 °F /  8.6 °C 41.5 °F /  5.3 °C 29.50in /  998.9hPa South 0.8mph /  1.3km/h 5mph /  8km/h 80% 0.00in /  0mm 42 W/m2
14:49 47.5 °F /  8.6 °C 41.5 °F /  5.3 °C 29.50in /  998.9hPa Calm     80% 0.00in /  0mm 40 W/m2
14:54 47.5 °F /  8.6 °C 41.7 °F /  5.4 °C 29.50in /  998.9hPa Calm     80.4% 0.00in /  0mm 39 W/m2
14:58 47.5 °F /  8.6 °C 41.9 °F /  5.5 °C 29.50in /  998.9hPa Calm     81% 0.00in /  0mm 39 W/m2
15:04 47.4 °F /  8.6 °C 41.8 °F /  5.4 °C 29.50in /  998.9hPa Calm     81% 0.00in /  0mm 40 W/m2
15:09 47.1 °F /  8.4 °C 41.5 °F /  5.3 °C 29.50in /  998.9hPa South 0.4mph /  0.6km/h 2mph /  3.2km/h 81% 0.00in /  0mm 37 W/m2
15:14 46.9 °F /  8.3 °C 41.5 °F /  5.3 °C 29.50in /  998.9hPa Calm   1mph /  1.6km/h 81.6% 0.00in /  0mm 26 W/m2
15:19 46.5 °F /  8.1 °C 41.3 °F /  5.2 °C 29.50in /  998.9hPa Calm   1mph /  1.6km/h 82% 0.00in /  0mm 25 W/m2
15:24 46.2 °F /  7.9 °C 41 °F /  5 °C 29.50in /  998.9hPa Calm   1mph /  1.6km/h 82% 0.00in /  0mm 19 W/m2
15:29 46 °F /  7.8 °C 41.2 °F /  5.1 °C 29.50in /  998.9hPa South 0.2mph /  0.3km/h 1mph /  1.6km/h 83% 0.00in /  0mm 16 W/m2
15:34 46 °F /  7.8 °C 41.2 °F /  5.1 °C 29.50in /  998.9hPa Calm     83% 0.00in /  0mm 16 W/m2
15:39 45.9 °F /  7.7 °C 41.3 °F /  5.2 °C 29.50in /  998.9hPa Calm     83.8% 0.00in /  0mm 12 W/m2
15:44 45.7 °F /  7.6 °C 41.2 °F /  5.1 °C 29.50in /  998.9hPa Calm     84% 0.00in /  0mm 11 W/m2
15:49 45.3 °F /  7.4 °C 40.8 °F /  4.9 °C 29.50in /  998.9hPa Calm     84% 0.00in /  0mm 9 W/m2
15:54 45.1 °F /  7.3 °C 40.7 °F /  4.8 °C 29.50in /  998.9hPa Calm     84.4% 0.00in /  0mm 5 W/m2
15:59 45 °F /  7.2 °C 40.6 °F /  4.8 °C 29.50in /  998.9hPa Calm     85% 0.00in /  0mm 0 W/m2
16:04 44.8 °F /  7.1 °C 40.5 °F /  4.7 °C 29.50in /  998.9hPa Calm     85.2% 0.00in /  0mm 0 W/m2
16:09 44.6 °F /  7 °C 40.6 °F /  4.8 °C 29.50in /  998.9hPa Calm     86% 0.00in /  0mm 0 W/m2
16:13 44.5 °F /  6.9 °C 40.6 °F /  4.8 °C 29.50in /  998.9hPa Calm     86% 0.00in /  0mm 0 W/m2
16:19 44.4 °F /  6.9 °C 40.5 °F /  4.7 °C 29.50in /  998.9hPa Calm     86% 0.00in /  0mm 0 W/m2
16:24 44.3 °F /  6.8 °C 40.4 °F /  4.7 °C 29.49in /  998.5hPa Calm     86% 0.00in /  0mm 0 W/m2
16:29 44.2 °F /  6.8 °C 40.4 °F /  4.7 °C 29.49in /  998.5hPa Calm     86.2% 0.00in /  0mm 0 W/m2
16:34 44.1 °F /  6.7 °C 40.2 °F /  4.6 °C 29.49in /  998.5hPa Calm     86.2% 0.00in /  0mm 0 W/m2
16:39 43.9 °F /  6.6 °C 40.3 °F /  4.6 °C 29.49in /  998.5hPa Calm     87% 0.00in /  0mm 0 W/m2
16:44 43.7 °F /  6.5 °C 40.1 °F /  4.5 °C 29.49in /  998.5hPa Calm     87% 0.00in /  0mm 0 W/m2
16:49 43.5 °F /  6.4 °C 39.8 °F /  4.3 °C 29.50in /  998.9hPa Calm     87% 0.00in /  0mm 0 W/m2
16:54 43.3 °F /  6.3 °C 39.7 °F /  4.3 °C 29.50in /  998.9hPa Calm     87.2% 0.00in /  0mm 0 W/m2
16:59 43.3 °F /  6.3 °C 40 °F /  4.4 °C 29.50in /  998.9hPa Calm     88% 0.00in /  0mm 0 W/m2
17:04 43.2 °F /  6.2 °C 39.9 °F /  4.4 °C 29.50in /  998.9hPa Calm     88% 0.00in /  0mm 0 W/m2
17:09 43.3 °F /  6.3 °C 40.1 °F /  4.5 °C 29.50in /  998.9hPa Calm     88% 0.00in /  0mm 0 W/m2
17:14 43.2 °F /  6.2 °C 39.9 °F /  4.4 °C 29.50in /  998.9hPa Calm     88% 0.00in /  0mm 0 W/m2
17:19 43.2 °F /  6.2 °C 39.8 °F /  4.3 °C 29.49in /  998.5hPa Calm     88% 0.00in /  0mm 0 W/m2
17:24 43 °F /  6.1 °C 39.8 °F /  4.3 °C 29.49in /  998.5hPa Calm     88.6% 0.00in /  0mm 0 W/m2
17:29 43 °F /  6.1 °C 39.9 °F /  4.4 °C 29.49in /  998.5hPa Calm     89% 0.00in /  0mm 0 W/m2
17:34 42.7 °F /  5.9 °C 39.6 °F /  4.2 °C 29.49in /  998.5hPa Calm     89% 0.00in /  0mm 0 W/m2
17:39 42.6 °F /  5.9 °C 39.6 °F /  4.2 °C 29.49in /  998.5hPa Calm     89% 0.00in /  0mm 0 W/m2
17:44 42.4 °F /  5.8 °C 39.4 °F /  4.1 °C 29.49in /  998.5hPa Calm     89% 0.00in /  0mm 0 W/m2
17:49 42.4 °F /  5.8 °C 39.4 °F /  4.1 °C 29.49in /  998.5hPa Calm     89% 0.00in /  0mm 0 W/m2
17:54 42.4 °F /  5.8 °C 39.4 °F /  4.1 °C 29.49in /  998.5hPa Calm     89% 0.00in /  0mm 0 W/m2
17:59 42.4 °F /  5.8 °C 39.4 °F /  4.1 °C 29.49in /  998.5hPa Calm     89% 0.00in /  0mm 0 W/m2
18:04 42.4 °F /  5.8 °C 39.6 °F /  4.2 °C 29.49in /  998.5hPa Calm     89.8% 0.00in /  0mm 0 W/m2
18:09 42.3 °F /  5.7 °C 39.6 °F /  4.2 °C 29.49in /  998.5hPa Calm     90% 0.00in /  0mm 0 W/m2
18:14 42.3 °F /  5.7 °C 39.6 °F /  4.2 °C 29.49in /  998.5hPa Calm     90% 0.00in /  0mm 0 W/m2
18:19 42.3 °F /  5.7 °C 39.6 °F /  4.2 °C 29.49in /  998.5hPa Calm     90% 0.00in /  0mm 0 W/m2
18:24 42.3 °F /  5.7 °C 39.6 °F /  4.2 °C 29.48in /  998.2hPa Calm     90% 0.00in /  0mm 0 W/m2
18:29 42.3 °F /  5.7 °C 39.6 °F /  4.2 °C 29.49in /  998.5hPa Calm     90% 0.00in /  0mm 0 W/m2
18:34 41.9 °F /  5.5 °C 39.2 °F /  4 °C 29.49in /  998.5hPa Calm     90% 0.00in /  0mm 0 W/m2
18:39 41.9 °F /  5.5 °C 39.2 °F /  4 °C 29.49in /  998.5hPa Calm     90% 0.00in /  0mm 0 W/m2
18:44 41.9 °F /  5.5 °C 39.2 °F /  4 °C 29.49in /  998.5hPa Calm     90% 0.00in /  0mm 0 W/m2
18:48 41.9 °F /  5.5 °C 39.2 °F /  4 °C 29.49in /  998.5hPa Calm     90% 0.00in /  0mm 0 W/m2
18:54 41.9 °F /  5.5 °C 39.2 °F /  4 °C 29.49in /  998.5hPa Calm     90% 0.00in /  0mm 0 W/m2
18:59 42 °F /  5.6 °C 39.5 °F /  4.2 °C 29.49in /  998.5hPa Calm     90.8% 0.00in /  0mm 0 W/m2
19:04 41.9 °F /  5.5 °C 39.4 °F /  4.1 °C 29.48in /  998.2hPa Calm     91% 0.00in /  0mm 0 W/m2
19:09 41.7 °F /  5.4 °C 39.2 °F /  4 °C 29.49in /  998.5hPa Calm     91% 0.00in /  0mm 0 W/m2
19:14 41.7 °F /  5.4 °C 39.2 °F /  4 °C 29.49in /  998.5hPa Calm     91% 0.00in /  0mm 0 W/m2
19:19 41.7 °F /  5.4 °C 39.2 °F /  4 °C 29.49in /  998.5hPa Calm     91% 0.00in /  0mm 0 W/m2
19:24 41.5 °F /  5.3 °C 39.2 °F /  4 °C 29.48in /  998.2hPa Calm     91% 0.00in /  0mm 0 W/m2
19:29 41.5 °F /  5.3 °C 39.2 °F /  4 °C 29.49in /  998.5hPa Calm     91% 0.00in /  0mm 0 W/m2
19:34 41.5 °F /  5.3 °C 39.2 °F /  4 °C 29.49in /  998.5hPa Calm     91% 0.00in /  0mm 0 W/m2
19:39 41.5 °F /  5.3 °C 39.2 °F /  4 °C 29.49in /  998.5hPa Calm     91% 0.00in /  0mm 0 W/m2
19:44 41.5 °F /  5.3 °C 39.2 °F /  4 °C 29.49in /  998.5hPa Calm     91% 0.00in /  0mm 0 W/m2
19:49 41.5 °F /  5.3 °C 39.2 °F /  4 °C 29.49in /  998.5hPa Calm     91% 0.00in /  0mm 0 W/m2
19:54 41.5 °F /  5.3 °C 39.2 °F /  4 °C 29.49in /  998.5hPa Calm     91% 0.00in /  0mm 0 W/m2
19:59 41.5 °F /  5.3 °C 39.2 °F /  4 °C 29.49in /  998.5hPa Calm     91% 0.00in /  0mm 0 W/m2
20:04 41.5 °F /  5.3 °C 39.2 °F /  4 °C 29.49in /  998.5hPa Calm     91% 0.00in /  0mm 0 W/m2
20:09 41.5 °F /  5.3 °C 39.3 °F /  4.1 °C 29.48in /  998.2hPa Calm     91.4% 0.00in /  0mm 0 W/m2
20:14 41.6 °F /  5.3 °C 39.3 °F /  4.1 °C 29.49in /  998.5hPa Calm     91.5% 0.00in /  0mm 0 W/m2
20:19 41.7 °F /  5.4 °C 39.5 °F /  4.2 °C 29.48in /  998.2hPa Calm     91.6% 0.00in /  0mm 0 W/m2
20:24 41.9 °F /  5.5 °C 39.7 °F /  4.3 °C 29.48in /  998.2hPa Calm     92% 0.00in /  0mm 0 W/m2
20:29 42.1 °F /  5.6 °C 39.9 °F /  4.4 °C 29.48in /  998.2hPa Calm     92% 0.00in /  0mm 0 W/m2
20:34 41.8 °F /  5.4 °C 39.6 °F /  4.2 °C 29.48in /  998.2hPa Calm     92% 0.00in /  0mm 0 W/m2
20:38 41.6 °F /  5.3 °C 39.5 °F /  4.2 °C 29.48in /  998.2hPa Calm     92% 0.00in /  0mm 0 W/m2
20:44 41.6 °F /  5.3 °C 39.5 °F /  4.2 °C 29.48in /  998.2hPa Calm     92% 0.00in /  0mm 0 W/m2
20:49 41.6 °F /  5.3 °C 39.5 °F /  4.2 °C 29.48in /  998.2hPa Calm     92% 0.00in /  0mm 0 W/m2
20:54 41.7 °F /  5.4 °C 39.6 °F /  4.2 °C 29.47in /  997.9hPa Calm     92% 0.00in /  0mm 0 W/m2
20:59 41.7 °F /  5.4 °C 39.6 °F /  4.2 °C 29.47in /  997.9hPa Calm     92% 0.00in /  0mm 0 W/m2
21:04 41.9 °F /  5.5 °C 39.7 °F /  4.3 °C 29.47in /  997.9hPa Calm     92% 0.00in /  0mm 0 W/m2
21:09 42.1 °F /  5.6 °C 39.9 °F /  4.4 °C 29.47in /  997.9hPa Calm     92% 0.00in /  0mm 0 W/m2
21:14 42 °F /  5.6 °C 39.8 °F /  4.3 °C 29.47in /  997.9hPa Calm     92% 0.00in /  0mm 0 W/m2
21:19 41.9 °F /  5.5 °C 39.7 °F /  4.3 °C 29.47in /  997.9hPa Calm     92% 0.00in /  0mm 0 W/m2
21:24 41.7 °F /  5.4 °C 39.6 °F /  4.2 °C 29.47in /  997.9hPa Calm     92% 0.00in /  0mm 0 W/m2
21:29 41.7 °F /  5.4 °C 39.6 °F /  4.2 °C 29.47in /  997.9hPa Calm     92% 0.00in /  0mm 0 W/m2
21:34 41.6 °F /  5.3 °C 39.5 °F /  4.2 °C 29.47in /  997.9hPa Calm     92% 0.00in /  0mm 0 W/m2
21:39 41.5 °F /  5.3 °C 39.4 °F /  4.1 °C 29.47in /  997.9hPa Calm     92% 0.00in /  0mm 0 W/m2
21:44 41.5 °F /  5.3 °C 39.4 °F /  4.1 °C 29.47in /  997.9hPa Calm     92% 0.00in /  0mm 0 W/m2
21:49 41.5 °F /  5.3 °C 39.4 °F /  4.1 °C 29.47in /  997.9hPa Calm     92% 0.00in /  0mm 0 W/m2
21:54 41.5 °F /  5.3 °C 39.4 °F /  4.1 °C 29.46in /  997.5hPa Calm     92% 0.00in /  0mm 0 W/m2
21:59 41.5 °F /  5.3 °C 39.7 °F /  4.3 °C 29.46in /  997.5hPa Calm     93% 0.00in /  0mm 0 W/m2
22:04 41.4 °F /  5.2 °C 39.6 °F /  4.2 °C 29.46in /  997.5hPa Calm     93% 0.00in /  0mm 0 W/m2
22:08 41.4 °F /  5.2 °C 39.6 °F /  4.2 °C 29.46in /  997.5hPa Calm     93% 0.00in /  0mm 0 W/m2
22:14 41.2 °F /  5.1 °C 39 °F /  3.9 °C 29.46in /  997.5hPa Calm     92% 0.00in /  0mm 0 W/m2
22:19 41.2 °F /  5.1 °C 39.2 °F /  4 °C 29.46in /  997.5hPa Calm     92.6% 0.00in /  0mm 0 W/m2
22:24 41.2 °F /  5.1 °C 39.4 °F /  4.1 °C 29.46in /  997.5hPa South 0.4mph /  0.6km/h 2mph /  3.2km/h 93% 0.00in /  0mm 0 W/m2
22:29 41.2 °F /  5.1 °C 39.4 °F /  4.1 °C 29.46in /  997.5hPa Calm     93% 0.00in /  0mm 0 W/m2
22:34 41.2 °F /  5.1 °C 39.4 °F /  4.1 °C 29.46in /  997.5hPa Calm     93% 0.00in /  0mm 0 W/m2
22:39 41.2 °F /  5.1 °C 39.4 °F /  4.1 °C 29.46in /  997.5hPa Calm     93% 0.00in /  0mm 0 W/m2
22:44 41.2 °F /  5.1 °C 39.4 °F /  4.1 °C 29.46in /  997.5hPa Calm     93% 0.00in /  0mm 0 W/m2
22:49 41.2 °F /  5.1 °C 39.4 °F /  4.1 °C 29.46in /  997.5hPa Calm     93% 0.00in /  0mm 0 W/m2
22:54 41.2 °F /  5.1 °C 39.4 °F /  4.1 °C 29.46in /  997.5hPa Calm     93% 0.00in /  0mm 0 W/m2
22:59 41.2 °F /  5.1 °C 39.4 °F /  4.1 °C 29.46in /  997.5hPa Calm     93% 0.00in /  0mm 0 W/m2
23:04 41.2 °F /  5.1 °C 39.4 °F /  4.1 °C 29.46in /  997.5hPa Calm     93% 0.00in /  0mm 0 W/m2
23:09 41.2 °F /  5.1 °C 39.4 °F /  4.1 °C 29.46in /  997.5hPa Calm     93% 0.00in /  0mm 0 W/m2
23:14 41.3 °F /  5.2 °C 39.5 °F /  4.2 °C 29.46in /  997.5hPa South 0.2mph /  0.3km/h 1mph /  1.6km/h 93% 0.00in /  0mm 0 W/m2
23:19 41.4 °F /  5.2 °C 39.6 °F /  4.2 °C 29.46in /  997.5hPa Calm     93% 0.00in /  0mm 0 W/m2
23:24 41.4 °F /  5.2 °C 39.6 °F /  4.2 °C 29.46in /  997.5hPa Calm     93% 0.00in /  0mm 0 W/m2
23:29 41.4 °F /  5.2 °C 39.6 °F /  4.2 °C 29.46in /  997.5hPa Calm     93% 0.00in /  0mm 0 W/m2
23:34 41.4 °F /  5.2 °C 39.6 °F /  4.2 °C 29.46in /  997.5hPa Calm     93% 0.00in /  0mm 0 W/m2
23:39 41.4 °F /  5.2 °C 39.6 °F /  4.2 °C 29.46in /  997.5hPa Calm     93% 0.00in /  0mm 0 W/m2
23:44 41.4 °F /  5.2 °C 39.6 °F /  4.2 °C 29.46in /  997.5hPa Calm     93% 0.00in /  0mm 0 W/m2
23:49 41.5 °F /  5.3 °C 39.7 °F /  4.3 °C 29.46in /  997.5hPa Calm     93% 0.00in /  0mm 0 W/m2
23:54 41.5 °F /  5.3 °C 39.7 °F /  4.3 °C 29.46in /  997.5hPa Calm     93% 0.00in /  0mm 0 W/m2
23:59 41.5 °F /  5.3 °C 39.7 °F /  4.3 °C 29.46in /  997.5hPa Calm     93% 0.00in /  0mm 0 W/m2
Bath Spa Weather
Compliments of Weather Underground - 2 mb